Observation data for Slaton on 08/20/2019      Previous  Date       Current Mesonet Observations  Soil Data  Daily Summary Page  Observations in Plain Language
KSLS 200500Z 14007KT 29/15 A3007 RMK A01 T02870146  RH  043%=      5-min Rain = 0
KSLS 200505Z 15007KT 28/15 A3007 RMK A01 T02840146  RH  044%=      5-min Rain = 0
KSLS 200510Z 15007KT 28/15 A3007 RMK A01 T02830147  RH  045%=      5-min Rain = 0
KSLS 200515Z 16007KT 28/15 A3007 RMK A01 T02800149  RH  046%=      5-min Rain = 0
KSLS 200520Z 16007KT 28/15 A3007 RMK A01 T02780149  RH  046%=      5-min Rain = 0
KSLS 200525Z 16007KT 28/15 A3007 RMK A01 T02780149  RH  046%=      5-min Rain = 0
KSLS 200530Z 16007KT 28/15 A3007 RMK A01 T02760150  RH  047%=      5-min Rain = 0
KSLS 200535Z 16007KT 27/15 A3007 RMK A01 T02740150  RH  048%=      5-min Rain = 0
KSLS 200540Z 16006KT 27/15 A3007 RMK A01 T02710149  RH  048%=      5-min Rain = 0
KSLS 200545Z 16007KT 27/15 A3007 RMK A01 T02710150  RH  049%=      5-min Rain = 0
KSLS 200550Z 16007KT 27/15 A3007 RMK A01 T02720151  RH  049%=      5-min Rain = 0
KSLS 200555Z 16007KT 27/15 A3007 RMK A01 T02740152  RH  048%=      5-min Rain = 0
KSLS 200600Z 16007KT 27/15 A3008 RMK A01 T02730153  RH  049%=      5-min Rain = 0
KSLS 200605Z 16007KT 27/15 A3008 RMK A01 T02710153  RH  049%=      5-min Rain = 0
KSLS 200610Z 16007KT 27/15 A3008 RMK A01 T02710153  RH  050%=      5-min Rain = 0
KSLS 200615Z 16006KT 27/15 A3008 RMK A01 T02680153  RH  051%=      5-min Rain = 0
KSLS 200620Z 16006KT 27/15 A3008 RMK A01 T02650154  RH  051%=      5-min Rain = 0
KSLS 200625Z 16007KT 26/15 A3008 RMK A01 T02630154  RH  052%=      5-min Rain = 0
KSLS 200630Z 16007KT 26/15 A3008 RMK A01 T02620154  RH  052%=      5-min Rain = 0
KSLS 200635Z 16007KT 26/15 A3008 RMK A01 T02620154  RH  053%=      5-min Rain = 0
KSLS 200640Z 16007KT 26/15 A3008 RMK A01 T02630154  RH  052%=      5-min Rain = 0
KSLS 200645Z 16008KT 26/15 A3008 RMK A01 T02630154  RH  052%=      5-min Rain = 0
KSLS 200650Z 16008KT 26/15 A3008 RMK A01 T02640154  RH  052%=      5-min Rain = 0
KSLS 200655Z 16008KT 26/15 A3008 RMK A01 T02640153  RH  052%=      5-min Rain = 0
KSLS 200700Z 16008KT 26/15 A3008 RMK A01 T02630153  RH  052%=      5-min Rain = 0
KSLS 200705Z 16007KT 26/15 A3008 RMK A01 T02600154  RH  053%=      5-min Rain = 0
KSLS 200710Z 15007KT 26/15 A3008 RMK A01 T02560154  RH  054%=      5-min Rain = 0
KSLS 200715Z 16007KT 25/15 A3008 RMK A01 T02530153  RH  055%=      5-min Rain = 0
KSLS 200720Z 16007KT 25/15 A3008 RMK A01 T02510153  RH  056%=      5-min Rain = 0
KSLS 200725Z 15007KT 25/15 A3008 RMK A01 T02500154  RH  056%=      5-min Rain = 0
KSLS 200730Z 15006KT 25/15 A3008 RMK A01 T02490154  RH  057%=      5-min Rain = 0
KSLS 200735Z 15006KT 25/15 A3008 RMK A01 T02470154  RH  057%=      5-min Rain = 0
KSLS 200740Z 15005KT 24/15 A3008 RMK A01 T02440154  RH  058%=      5-min Rain = 0
KSLS 200745Z 15005KT 24/15 A3008 RMK A01 T02420154  RH  059%=      5-min Rain = 0
KSLS 200750Z 15006KT 24/15 A3008 RMK A01 T02410153  RH  059%=      5-min Rain = 0
KSLS 200755Z 16006KT 24/15 A3008 RMK A01 T02440153  RH  058%=      5-min Rain = 0
KSLS 200800Z 16007KT 25/15 A3008 RMK A01 T02460154  RH  058%=      5-min Rain = 0
KSLS 200805Z 16007KT 25/15 A3008 RMK A01 T02460154  RH  058%=      5-min Rain = 0
KSLS 200810Z 16007KT 25/15 A3008 RMK A01 T02470153  RH  057%=      5-min Rain = 0
KSLS 200815Z 16007KT 25/15 A3008 RMK A01 T02470153  RH  057%=      5-min Rain = 0
KSLS 200820Z 17007KT 25/15 A3008 RMK A01 T02450153  RH  058%=      5-min Rain = 0
KSLS 200825Z 17006KT 24/15 A3008 RMK A01 T02420152  RH  058%=      5-min Rain = 0
KSLS 200830Z 17006KT 24/15 A3008 RMK A01 T02410151  RH  058%=      5-min Rain = 0
KSLS 200835Z 17006KT 24/15 A3008 RMK A01 T02420152  RH  058%=      5-min Rain = 0
KSLS 200840Z 17006KT 24/15 A3008 RMK A01 T02440152  RH  058%=      5-min Rain = 0
KSLS 200845Z 17006KT 24/15 A3008 RMK A01 T02440152  RH  058%=      5-min Rain = 0
KSLS 200850Z 17007KT 24/15 A3008 RMK A01 T02430152  RH  058%=      5-min Rain = 0
KSLS 200855Z 17007KT 24/15 A3008 RMK A01 T02420152  RH  058%=      5-min Rain = 0
KSLS 200900Z 17007KT 24/15 A3008 RMK A01 T02420152  RH  058%=      5-min Rain = 0
KSLS 200905Z 17007KT 24/15 A3008 RMK A01 T02400152  RH  059%=      5-min Rain = 0
KSLS 200910Z 17006KT 24/15 A3008 RMK A01 T02380152  RH  060%=      5-min Rain = 0
KSLS 200915Z 18006KT 24/15 A3008 RMK A01 T02370152  RH  060%=      5-min Rain = 0
KSLS 200920Z 18007KT 24/15 A3008 RMK A01 T02380153  RH  060%=      5-min Rain = 0
KSLS 200925Z 18007KT 24/15 A3008 RMK A01 T02370153  RH  061%=      5-min Rain = 0
KSLS 200930Z 18007KT 24/15 A3008 RMK A01 T02360153  RH  061%=      5-min Rain = 0
KSLS 200935Z 18006KT 24/15 A3008 RMK A01 T02360153  RH  061%=      5-min Rain = 0
KSLS 200940Z 19005KT 23/15 A3008 RMK A01 T02340152  RH  061%=      5-min Rain = 0
KSLS 200945Z 19005KT 23/15 A3008 RMK A01 T02320152  RH  062%=      5-min Rain = 0
KSLS 200950Z 19006KT 23/15 A3008 RMK A01 T02320153  RH  062%=      5-min Rain = 0
KSLS 200955Z 19006KT 23/15 A3008 RMK A01 T02310153  RH  062%=      5-min Rain = 0
KSLS 201000Z 19006KT 23/15 A3008 RMK A01 T02310153  RH  063%=      5-min Rain = 0
KSLS 201005Z 19006KT 23/15 A3008 RMK A01 T02300153  RH  063%=      5-min Rain = 0
KSLS 201010Z 19007KT 23/15 A3008 RMK A01 T02300152  RH  063%=      5-min Rain = 0
KSLS 201015Z 19007KT 23/15 A3008 RMK A01 T02300152  RH  063%=      5-min Rain = 0
KSLS 201020Z 19007KT 23/15 A3008 RMK A01 T02330152  RH  062%=      5-min Rain = 0
KSLS 201025Z 19008KT 24/15 A3008 RMK A01 T02370151  RH  060%=      5-min Rain = 0
KSLS 201030Z 19008KT 24/15 A3008 RMK A01 T02410151  RH  059%=      5-min Rain = 0
KSLS 201035Z 19008KT 24/15 A3008 RMK A01 T02430151  RH  058%=      5-min Rain = 0
KSLS 201040Z 19008KT 25/15 A3008 RMK A01 T02450150  RH  057%=      5-min Rain = 0
KSLS 201045Z 19009KT 25/15 A3009 RMK A01 T02470151  RH  056%=      5-min Rain = 0
KSLS 201050Z 19010KT 25/15 A3009 RMK A01 T02490151  RH  056%=      5-min Rain = 0
KSLS 201055Z 19009KT 25/15 A3009 RMK A01 T02500151  RH  055%=      5-min Rain = 0
KSLS 201100Z 19008KT 25/15 A3009 RMK A01 T02500151  RH  055%=      5-min Rain = 0
KSLS 201105Z 19008KT 25/15 A3009 RMK A01 T02490151  RH  055%=      5-min Rain = 0
KSLS 201110Z 20007KT 25/15 A3009 RMK A01 T02480151  RH  056%=      5-min Rain = 0
KSLS 201115Z 19007KT 25/15 A3009 RMK A01 T02480151  RH  056%=      5-min Rain = 0
KSLS 201120Z 19007KT 25/15 A3009 RMK A01 T02470151  RH  056%=      5-min Rain = 0
KSLS 201125Z 18007KT 24/15 A301 RMK A01 T02440150  RH  057%=      5-min Rain = 0
KSLS 201130Z 18006KT 24/15 A301 RMK A01 T02400150  RH  058%=      5-min Rain = 0
KSLS 201135Z 18006KT 24/15 A301 RMK A01 T02380150  RH  059%=      5-min Rain = 0
KSLS 201140Z 18007KT 24/15 A301 RMK A01 T02360151  RH  060%=      5-min Rain = 0
KSLS 201145Z 18007KT 24/15 A301 RMK A01 T02350151  RH  061%=      5-min Rain = 0
KSLS 201150Z 18007KT 24/15 A301 RMK A01 T02360152  RH  061%=      5-min Rain = 0
KSLS 201155Z 19008KT 24/15 A301 RMK A01 T02360152  RH  061%=      5-min Rain = 0
KSLS 201200Z 19007KT 24/15 A301 RMK A01 T02350152  RH  061%=      5-min Rain = 0
KSLS 201205Z 19007KT 23/15 A301 RMK A01 T02340152  RH  061%=      5-min Rain = 0
KSLS 201210Z 19007KT 24/15 A301 RMK A01 T02350152  RH  061%=      5-min Rain = 0
KSLS 201215Z 19006KT 24/15 A3011 RMK A01 T02350152  RH  061%=      5-min Rain = 0
KSLS 201220Z 20006KT 23/15 A3011 RMK A01 T02330152  RH  062%=      5-min Rain = 0
KSLS 201225Z 20007KT 23/15 A3011 RMK A01 T02340153  RH  062%=      5-min Rain = 0
KSLS 201230Z 20007KT 24/15 A3011 RMK A01 T02370154  RH  061%=      5-min Rain = 0
KSLS 201235Z 20006KT 24/15 A3011 RMK A01 T02380154  RH  061%=      5-min Rain = 0
KSLS 201240Z 20006KT 24/16 A3012 RMK A01 T02380155  RH  061%=      5-min Rain = 0
KSLS 201245Z 21007KT 24/16 A3012 RMK A01 T02380155  RH  061%=      5-min Rain = 0
KSLS 201250Z 21007KT 24/16 A3012 RMK A01 T02410155  RH  060%=      5-min Rain = 0
KSLS 201255Z 21007KT 24/16 A3012 RMK A01 T02440156  RH  059%=      5-min Rain = 0
KSLS 201300Z 20007KT 25/16 A3012 RMK A01 T02460156  RH  059%=      5-min Rain = 0
KSLS 201305Z 20007KT 25/16 A3012 RMK A01 T02490157  RH  058%=      5-min Rain = 0
KSLS 201310Z 20007KT 25/16 A3012 RMK A01 T02510157  RH  057%=      5-min Rain = 0
KSLS 201315Z 20007KT 25/16 A3012 RMK A01 T02530158  RH  057%=      5-min Rain = 0
KSLS 201320Z 20007KT 26/16 A3012 RMK A01 T02550159  RH  057%=      5-min Rain = 0
KSLS 201325Z 20008KT 26/16 A3012 RMK A01 T02550160  RH  057%=      5-min Rain = 0
KSLS 201330Z 20008KT 26/16 A3012 RMK A01 T02570160  RH  056%=      5-min Rain = 0
KSLS 201335Z 20007KT 26/16 A3013 RMK A01 T02590161  RH  056%=      5-min Rain = 0
KSLS 201340Z 20007KT 26/16 A3013 RMK A01 T02610162  RH  056%=      5-min Rain = 0
KSLS 201345Z 20008KT 26/16 A3013 RMK A01 T02640163  RH  055%=      5-min Rain = 0
KSLS 201350Z 20009KT 26/16 A3013 RMK A01 T02640163  RH  055%=      5-min Rain = 0
KSLS 201355Z 20008KT 27/17 A3013 RMK A01 T02660165  RH  055%=      5-min Rain = 0
KSLS 201400Z 21009KT 27/17 A3013 RMK A01 T02690166  RH  055%=      5-min Rain = 0
KSLS 201405Z 21009KT 27/17 A3013 RMK A01 T02700167  RH  055%=      5-min Rain = 0
KSLS 201410Z 21009KT 28/17 A3013 RMK A01 T02750170  RH  054%=      5-min Rain = 0
KSLS 201415Z 22013KT 28/17 A3013 RMK A01 T02760170  RH  054%=      5-min Rain = 0
KSLS 201420Z 21012G17KT 28/17 A3013 RMK A01 T02780172  RH  054%=      5-min Rain = 0
KSLS 201425Z 21012KT 28/17 A3013 RMK A01 T02790172  RH  053%=      5-min Rain = 0
KSLS 201430Z 21013G19KT 28/17 A3013 RMK A01 T02800172  RH  053%=      5-min Rain = 0
KSLS 201435Z 23013KT 28/17 A3013 RMK A01 T02820173  RH  053%=      5-min Rain = 0
KSLS 201440Z 23014KT 28/17 A3013 RMK A01 T02820173  RH  053%=      5-min Rain = 0
KSLS 201445Z 22013KT 28/17 A3013 RMK A01 T02840173  RH  052%=      5-min Rain = 0
KSLS 201450Z 22014KT 28/17 A3013 RMK A01 T02840173  RH  052%=      5-min Rain = 0
KSLS 201455Z 21013KT 29/17 A3013 RMK A01 T02870174  RH  052%=      5-min Rain = 0
KSLS 201500Z 22012KT 29/18 A3013 RMK A01 T02920175  RH  051%=      5-min Rain = 0
KSLS 201505Z 22013KT 29/17 A3013 RMK A01 T02910174  RH  051%=      5-min Rain = 0
KSLS 201510Z 23012G17KT 29/17 A3013 RMK A01 T02920174  RH  050%=      5-min Rain = 0
KSLS 201515Z 23012KT 29/17 A3013 RMK A01 T02940174  RH  050%=      5-min Rain = 0
KSLS 201520Z 22011KT 30/17 A3013 RMK A01 T02950174  RH  049%=      5-min Rain = 0
KSLS 201525Z 23011KT 30/17 A3013 RMK A01 T02990174  RH  048%=      5-min Rain = 0
KSLS 201530Z 22011KT 30/17 A3013 RMK A01 T02990174  RH  048%=      5-min Rain = 0
KSLS 201535Z 22010KT 30/18 A3013 RMK A01 T03040175  RH  047%=      5-min Rain = 0
KSLS 201540Z 22010KT 31/18 A3013 RMK A01 T03050175  RH  047%=      5-min Rain = 0
KSLS 201545Z 20012KT 31/17 A3013 RMK A01 T03080173  RH  045%=      5-min Rain = 0
KSLS 201550Z 21011KT 31/17 A3012 RMK A01 T03080173  RH  045%=      5-min Rain = 0
KSLS 201555Z 23012KT 31/17 A3012 RMK A01 T03090173  RH  045%=      5-min Rain = 0
KSLS 201600Z 22010KT 31/17 A3013 RMK A01 T03110174  RH  045%=      5-min Rain = 0
KSLS 201605Z 23010KT 31/18 A3013 RMK A01 T03120175  RH  045%=      5-min Rain = 0
KSLS 201610Z 21011KT 31/17 A3013 RMK A01 T03140172  RH  044%=      5-min Rain = 0
KSLS 201615Z 23010KT 31/17 A3013 RMK A01 T03130173  RH  044%=      5-min Rain = 0
KSLS 201620Z 23009KT 32/17 A3013 RMK A01 T03160173  RH  043%=      5-min Rain = 0
KSLS 201625Z 23010KT 32/18 A3013 RMK A01 T03200175  RH  043%=      5-min Rain = 0
KSLS 201630Z 22010G16KT 32/17 A3013 RMK A01 T03170172  RH  043%=      5-min Rain = 0
KSLS 201635Z 22008G13KT 32/17 A3013 RMK A01 T03200174  RH  043%=      5-min Rain = 0
KSLS 201640Z 20008KT 32/17 A3013 RMK A01 T03230170  RH  041%=      5-min Rain = 0
KSLS 201645Z 20009KT 32/17 A3013 RMK A01 T03200168  RH  041%=      5-min Rain = 0
KSLS 201650Z 20009KT 32/17 A3013 RMK A01 T03230168  RH  040%=      5-min Rain = 0
KSLS 201655Z 20010KT 32/17 A3013 RMK A01 T03220166  RH  040%=      5-min Rain = 0
KSLS 201700Z 20008KT 32/17 A3013 RMK A01 T03220167  RH  040%=      5-min Rain = 0
KSLS 201705Z 19008G13KT 32/17 A3013 RMK A01 T03220168  RH  041%=      5-min Rain = 0
KSLS 201710Z 19007G13KT 32/17 A3013 RMK A01 T03240169  RH  041%=      5-min Rain = 0
KSLS 201715Z 19007G12KT 33/17 A3013 RMK A01 T03280169  RH  040%=      5-min Rain = 0
KSLS 201720Z 16006G12KT 33/17 A3013 RMK A01 T03320168  RH  038%=      5-min Rain = 0
KSLS 201725Z 15009KT 33/16 A3013 RMK A01 T03330164  RH  037%=      5-min Rain = 0
KSLS 201730Z 15004G9KT 33/16 A3013 RMK A01 T03310161  RH  037%=      5-min Rain = 0
KSLS 201735Z 16008KT 33/16 A3013 RMK A01 T03320156  RH  036%=      5-min Rain = 0
KSLS 201740Z 15009KT 33/16 A3013 RMK A01 T03340164  RH  037%=      5-min Rain = 0
KSLS 201745Z 15006G11KT 33/16 A3013 RMK A01 T03320164  RH  038%=      5-min Rain = 0
KSLS 201750Z 18008G13KT 34/16 A3013 RMK A01 T03380162  RH  036%=      5-min Rain = 0
KSLS 201755Z 18004G12KT 33/16 A3013 RMK A01 T03330160  RH  036%=      5-min Rain = 0
KSLS 201800Z 16009KT 34/15 A3013 RMK A01 T03410152  RH  033%=      5-min Rain = 0
KSLS 201805Z 15008G14KT 34/15 A3013 RMK A01 T03380154  RH  034%=      5-min Rain = 0
KSLS 201810Z 14010KT 34/16 A3013 RMK A01 T03390155  RH  034%=      5-min Rain = 0
KSLS 201815Z 15008G13KT 34/16 A3013 RMK A01 T03410159  RH  034%=      5-min Rain = 0
KSLS 201820Z 16006G12KT 34/16 A3013 RMK A01 T03370163  RH  036%=      5-min Rain = 0
KSLS 201825Z 21006KT 34/16 A3012 RMK A01 T03370160  RH  036%=      5-min Rain = 0
KSLS 201830Z 16009KT 34/16 A3013 RMK A01 T03380157  RH  035%=      5-min Rain = 0
KSLS 201835Z 18007KT 34/15 A3012 RMK A01 T03390153  RH  034%=      5-min Rain = 0
KSLS 201840Z 18008G13KT 34/16 A3012 RMK A01 T03380157  RH  035%=      5-min Rain = 0
KSLS 201845Z 20006KT 34/16 A3012 RMK A01 T03390157  RH  034%=      5-min Rain = 0
KSLS 201850Z 20006G12KT 34/16 A3012 RMK A01 T03390162  RH  036%=      5-min Rain = 0
KSLS 201855Z 19009KT 34/16 A3012 RMK A01 T03410158  RH  034%=      5-min Rain = 0
KSLS 201900Z 21010G16KT 34/16 A3012 RMK A01 T03430158  RH  034%=      5-min Rain = 0
KSLS 201905Z 18008G14KT 35/16 A3012 RMK A01 T03460155  RH  033%=      5-min Rain = 0
KSLS 201910Z 13006G12KT 35/15 A3012 RMK A01 T03480152  RH  032%=      5-min Rain = 0
KSLS 201915Z 15009KT 35/16 A3011 RMK A01 T03480157  RH  033%=      5-min Rain = 0
KSLS 201920Z 14007G12KT 35/16 A3011 RMK A01 T03500155  RH  032%=      5-min Rain = 0
KSLS 201925Z 16006KT 35/16 A3011 RMK A01 T03490156  RH  032%=      5-min Rain = 0
KSLS 201930Z 19011KT 35/16 A301 RMK A01 T03540156  RH  031%=      5-min Rain = 0
KSLS 201935Z 18011KT 35/15 A301 RMK A01 T03510153  RH  031%=      5-min Rain = 0
KSLS 201940Z 17008KT 35/15 A301 RMK A01 T03510152  RH  031%=      5-min Rain = 0
KSLS 201945Z 16006KT 35/15 A301 RMK A01 T03530153  RH  031%=      5-min Rain = 0
KSLS 201950Z 15004KT 36/16 A301 RMK A01 T03560157  RH  031%=      5-min Rain = 0
KSLS 201955Z 17009G16KT 36/16 A301 RMK A01 T03550156  RH  031%=      5-min Rain = 0
KSLS 202000Z 17007KT 36/15 A3009 RMK A01 T03560151  RH  030%=      5-min Rain = 0
KSLS 202005Z 15007G13KT 36/15 A3009 RMK A01 T03600146  RH  029%=      5-min Rain = 0
KSLS 202010Z 14007G13KT 36/14 A3009 RMK A01 T03610140  RH  027%=      5-min Rain = 0
KSLS 202015Z 16008G13KT 36/15 A3009 RMK A01 T03610145  RH  028%=      5-min Rain = 0
KSLS 202020Z 17006KT 36/14 A3009 RMK A01 T03590139  RH  027%=      5-min Rain = 0
KSLS 202025Z 15009G14KT 36/14 A3009 RMK A01 T03610144  RH  028%=      5-min Rain = 0
KSLS 202030Z 15008G15KT 36/14 A3008 RMK A01 T03600136  RH  027%=      5-min Rain = 0
KSLS 202035Z 17007G14KT 36/13 A3008 RMK A01 T03610125  RH  025%=      5-min Rain = 0
KSLS 202040Z 16008KT 37/14 A3008 RMK A01 T03660135  RH  026%=      5-min Rain = 0
KSLS 202045Z 15009KT 37/14 A3007 RMK A01 T03690136  RH  026%=      5-min Rain = 0
KSLS 202050Z 17007G15KT 36/13 A3007 RMK A01 T03640133  RH  026%=      5-min Rain = 0
KSLS 202055Z 18008G14KT 36/13 A3007 RMK A01 T03620131  RH  025%=      5-min Rain = 0
KSLS 202100Z 17006G11KT 36/12 A3007 RMK A01 T03620122  RH  024%=      5-min Rain = 0
KSLS 202105Z 14008G15KT 37/14 A3007 RMK A01 T03650135  RH  026%=      5-min Rain = 0
KSLS 202110Z 14008G13KT 37/14 A3006 RMK A01 T03650138  RH  026%=      5-min Rain = 0
KSLS 202115Z 13005KT 36/14 A3006 RMK A01 T03620139  RH  027%=      5-min Rain = 0
KSLS 202120Z 19006G15KT 37/14 A3006 RMK A01 T03670139  RH  026%=      5-min Rain = 0
KSLS 202125Z 19011KT 37/14 A3006 RMK A01 T03680141  RH  026%=      5-min Rain = 0
KSLS 202130Z 18011G16KT 36/14 A3005 RMK A01 T03640137  RH  026%=      5-min Rain = 0
KSLS 202135Z 19008KT 36/14 A3005 RMK A01 T03620135  RH  026%=      5-min Rain = 0
KSLS 202140Z 17006G13KT 36/14 A3005 RMK A01 T03640136  RH  026%=      5-min Rain = 0
KSLS 202145Z 17011KT 37/14 A3005 RMK A01 T03670137  RH  026%=      5-min Rain = 0
KSLS 202150Z 17011KT 37/14 A3005 RMK A01 T03670135  RH  026%=      5-min Rain = 0
KSLS 202155Z 16008G14KT 37/13 A3005 RMK A01 T03650134  RH  026%=      5-min Rain = 0
KSLS 202200Z 18006G13KT 37/13 A3005 RMK A01 T03650132  RH  025%=      5-min Rain = 0
KSLS 202205Z 18008G13KT 37/13 A3004 RMK A01 T03660129  RH  025%=      5-min Rain = 0
KSLS 202210Z 16009G15KT 37/14 A3004 RMK A01 T03690137  RH  026%=      5-min Rain = 0
KSLS 202215Z 17010KT 37/14 A3004 RMK A01 T03670138  RH  026%=      5-min Rain = 0
KSLS 202220Z 17008G13KT 36/14 A3004 RMK A01 T03630137  RH  026%=      5-min Rain = 0
KSLS 202225Z 17006G12KT 36/14 A3004 RMK A01 T03600137  RH  027%=      5-min Rain = 0
KSLS 202230Z 17009KT 37/13 A3004 RMK A01 T03660134  RH  025%=      5-min Rain = 0
KSLS 202235Z 16010G15KT 37/13 A3004 RMK A01 T03660129  RH  025%=      5-min Rain = 0
KSLS 202240Z 15010KT 37/12 A3004 RMK A01 T03660121  RH  023%=      5-min Rain = 0
KSLS 202245Z 17007KT 37/13 A3004 RMK A01 T03660128  RH  025%=      5-min Rain = 0
KSLS 202250Z 14009G17KT 37/13 A3004 RMK A01 T03670127  RH  024%=      5-min Rain = 0
KSLS 202255Z 13008KT 37/12 A3004 RMK A01 T03670121  RH  023%=      5-min Rain = 0
KSLS 202300Z 15010KT 37/12 A3004 RMK A01 T03650120  RH  023%=      5-min Rain = 0
KSLS 202305Z 16007KT 36/12 A3004 RMK A01 T03630122  RH  024%=      5-min Rain = 0
KSLS 202310Z 15009KT 36/13 A3003 RMK A01 T03640125  RH  024%=      5-min Rain = 0
KSLS 202315Z 16011KT 36/12 A3004 RMK A01 T03630122  RH  024%=      5-min Rain = 0
KSLS 202320Z 13009KT 37/12 A3004 RMK A01 T03650116  RH  023%=      5-min Rain = 0
KSLS 202325Z 15010KT 37/12 A3004 RMK A01 T03650117  RH  023%=      5-min Rain = 0
KSLS 202330Z 15011G17KT 37/12 A3003 RMK A01 T03650116  RH  023%=      5-min Rain = 0
KSLS 202335Z 15010KT 36/12 A3004 RMK A01 T03610116  RH  023%=      5-min Rain = 0
KSLS 202340Z 13009KT 36/12 A3003 RMK A01 T03610117  RH  023%=      5-min Rain = 0
KSLS 202345Z 13010KT 36/11 A3003 RMK A01 T03610114  RH  023%=      5-min Rain = 0
KSLS 202350Z 14011KT 36/11 A3004 RMK A01 T03610112  RH  023%=      5-min Rain = 0
KSLS 202355Z 15010KT 36/11 A3004 RMK A01 T03590112  RH  023%=      5-min Rain = 0
KSLS 210000Z 15010G15KT 36/11 A3003 RMK A01 T03590114  RH  023%=      5-min Rain = 0
KSLS 210005Z 15011KT 36/11 A3004 RMK A01 T03560111  RH  023%=      5-min Rain = 0
KSLS 210010Z 14011KT 36/11 A3004 RMK A01 T03550113  RH  023%=      5-min Rain = 0
KSLS 210015Z 16011KT 35/11 A3003 RMK A01 T03540112  RH  024%=      5-min Rain = 0
KSLS 210020Z 15011KT 35/11 A3003 RMK A01 T03520113  RH  024%=      5-min Rain = 0
KSLS 210025Z 15011KT 35/11 A3004 RMK A01 T03490113  RH  024%=      5-min Rain = 0
KSLS 210030Z 15009KT 34/12 A3004 RMK A01 T03440117  RH  026%=      5-min Rain = 0
KSLS 210035Z 15009KT 34/12 A3004 RMK A01 T03400119  RH  027%=      5-min Rain = 0
KSLS 210040Z 15009KT 34/12 A3004 RMK A01 T03350120  RH  028%=      5-min Rain = 0
KSLS 210045Z 15009KT 33/12 A3004 RMK A01 T03320118  RH  028%=      5-min Rain = 0
KSLS 210050Z 16009KT 33/12 A3004 RMK A01 T03300119  RH  028%=      5-min Rain = 0
KSLS 210055Z 15008KT 33/12 A3004 RMK A01 T03290119  RH  028%=      5-min Rain = 0
KSLS 210100Z 16007KT 33/12 A3004 RMK A01 T03250120  RH  029%=      5-min Rain = 0
KSLS 210105Z 16007KT 32/12 A3004 RMK A01 T03210121  RH  030%=      5-min Rain = 0
KSLS 210110Z 16008KT 32/12 A3004 RMK A01 T03200122  RH  031%=      5-min Rain = 0
KSLS 210115Z 16008KT 32/12 A3005 RMK A01 T03200122  RH  031%=      5-min Rain = 0
KSLS 210120Z 16008KT 32/12 A3005 RMK A01 T03180122  RH  031%=      5-min Rain = 0
KSLS 210125Z 15008KT 32/12 A3005 RMK A01 T03160120  RH  031%=      5-min Rain = 0
KSLS 210130Z 15008KT 31/12 A3005 RMK A01 T03140120  RH  031%=      5-min Rain = 0
KSLS 210135Z 15007KT 31/12 A3005 RMK A01 T03100120  RH  032%=      5-min Rain = 0
KSLS 210140Z 15007KT 31/12 A3005 RMK A01 T03060121  RH  033%=      5-min Rain = 0
KSLS 210145Z 15007KT 30/12 A3006 RMK A01 T03040121  RH  033%=      5-min Rain = 0
KSLS 210150Z 15007KT 30/12 A3006 RMK A01 T03000122  RH  034%=      5-min Rain = 0
KSLS 210155Z 15007KT 30/12 A3006 RMK A01 T02980122  RH  034%=      5-min Rain = 0
KSLS 210200Z 16008KT 30/12 A3006 RMK A01 T02970122  RH  035%=      5-min Rain = 0
KSLS 210205Z 15007KT 30/12 A3006 RMK A01 T02970122  RH  035%=      5-min Rain = 0
KSLS 210210Z 15008KT 30/12 A3006 RMK A01 T02970122  RH  035%=      5-min Rain = 0
KSLS 210215Z 15008KT 30/12 A3006 RMK A01 T02950123  RH  035%=      5-min Rain = 0
KSLS 210220Z 15007KT 29/12 A3007 RMK A01 T02910124  RH  036%=      5-min Rain = 0
KSLS 210225Z 16007KT 29/13 A3007 RMK A01 T02850125  RH  038%=      5-min Rain = 0
KSLS 210230Z 16007KT 28/12 A3007 RMK A01 T02820123  RH  038%=      5-min Rain = 0
KSLS 210235Z 16007KT 28/12 A3007 RMK A01 T02820124  RH  038%=      5-min Rain = 0
KSLS 210240Z 16007KT 28/13 A3007 RMK A01 T02810125  RH  039%=      5-min Rain = 0
KSLS 210245Z 16008KT 28/13 A3008 RMK A01 T02810126  RH  039%=      5-min Rain = 0
KSLS 210250Z 16008KT 28/13 A3008 RMK A01 T02830126  RH  039%=      5-min Rain = 0
KSLS 210255Z 16008KT 28/13 A3008 RMK A01 T02820127  RH  039%=      5-min Rain = 0
KSLS 210300Z 16009KT 28/13 A3008 RMK A01 T02820129  RH  040%=      5-min Rain = 0
KSLS 210305Z 16008KT 28/13 A3008 RMK A01 T02810130  RH  040%=      5-min Rain = 0
KSLS 210310Z 16009KT 28/13 A3008 RMK A01 T02820130  RH  040%=      5-min Rain = 0
KSLS 210315Z 16009KT 28/13 A3009 RMK A01 T02820131  RH  040%=      5-min Rain = 0
KSLS 210320Z 16008KT 28/13 A3009 RMK A01 T02820131  RH  040%=      5-min Rain = 0
KSLS 210325Z 16008KT 28/13 A3009 RMK A01 T02810132  RH  041%=      5-min Rain = 0
KSLS 210330Z 15008KT 28/13 A3009 RMK A01 T02790132  RH  041%=      5-min Rain = 0
KSLS 210335Z 15007KT 28/13 A3009 RMK A01 T02760132  RH  042%=      5-min Rain = 0
KSLS 210340Z 15008KT 27/13 A3009 RMK A01 T02740133  RH  043%=      5-min Rain = 0
KSLS 210345Z 15008KT 27/13 A3009 RMK A01 T02720133  RH  043%=      5-min Rain = 0
KSLS 210350Z 15007KT 27/13 A3009 RMK A01 T02710133  RH  043%=      5-min Rain = 0
KSLS 210355Z 15008KT 27/13 A3009 RMK A01 T02690133  RH  044%=      5-min Rain = 0
KSLS 210400Z 15007KT 27/13 A3009 RMK A01 T02670133  RH  044%=      5-min Rain = 0
KSLS 210405Z 15008KT 27/13 A3009 RMK A01 T02660134  RH  045%=      5-min Rain = 0
KSLS 210410Z 15008KT 27/13 A3009 RMK A01 T02660134  RH  045%=      5-min Rain = 0
KSLS 210415Z 15007KT 27/13 A3009 RMK A01 T02650134  RH  045%=      5-min Rain = 0
KSLS 210420Z 16007KT 26/13 A3009 RMK A01 T02640133  RH  045%=      5-min Rain = 0
KSLS 210425Z 16008KT 26/13 A3009 RMK A01 T02640133  RH  045%=      5-min Rain = 0
KSLS 210430Z 16007KT 26/13 A3009 RMK A01 T02640133  RH  045%=      5-min Rain = 0
KSLS 210435Z 16008KT 26/13 A3009 RMK A01 T02640133  RH  045%=      5-min Rain = 0
KSLS 210440Z 16007KT 27/13 A3009 RMK A01 T02650133  RH  045%=      5-min Rain = 0
KSLS 210445Z 16007KT 27/13 A3009 RMK A01 T02650133  RH  045%=      5-min Rain = 0
KSLS 210450Z 16007KT 26/13 A3009 RMK A01 T02640134  RH  046%=      5-min Rain = 0
KSLS 210455Z 16006KT 26/13 A3009 RMK A01 T02610134  RH  046%=      5-min Rain = 0

Page generated in 0.0091 seconds.